createdAt,value
2019-05-10T00:02:30.121Z,7.33
2019-05-10T00:05:55.441Z,7.35
2019-05-10T00:09:01.774Z,7.38
2019-05-10T00:12:31.321Z,7.37
2019-05-10T00:15:37.695Z,7.24
2019-05-10T00:18:44.206Z,7.26
2019-05-10T00:21:50.641Z,7.35
2019-05-10T00:25:03.925Z,7.35
2019-05-10T00:28:04.931Z,7.33
2019-05-10T00:31:11.558Z,7.26
2019-05-10T00:34:18.421Z,7.20
2019-05-10T00:37:24.813Z,7.20
2019-05-10T00:40:31.086Z,7.22
2019-05-10T00:43:37.490Z,7.22
2019-05-10T00:46:43.888Z,7.33
2019-05-10T00:49:50.333Z,7.28
2019-05-10T00:52:56.689Z,7.15
2019-05-10T00:56:03.231Z,7.18
2019-05-10T00:59:09.941Z,7.18
2019-05-10T01:02:16.202Z,7.04
2019-05-10T01:05:22.464Z,7.24
2019-05-10T01:08:28.886Z,7.14
2019-05-10T01:11:35.454Z,7.09
2019-05-10T01:14:41.956Z,7.25
2019-05-10T01:17:48.237Z,7.27
2019-05-10T01:20:54.702Z,7.22
2019-05-10T01:24:00.951Z,7.22
2019-05-10T01:27:07.576Z,7.11
2019-05-10T01:30:14.383Z,7.10
2019-05-10T01:33:21.139Z,7.11
2019-05-10T01:36:27.709Z,7.01
2019-05-10T01:39:33.967Z,6.89
2019-05-10T01:42:40.321Z,6.97
2019-05-10T01:45:46.750Z,6.97
2019-05-10T01:48:53.036Z,6.88
2019-05-10T01:51:59.512Z,6.77
2019-05-10T01:55:06.057Z,6.82
2019-05-10T01:58:12.514Z,6.66
2019-05-10T02:01:19.099Z,6.47
2019-05-10T02:04:26.527Z,6.10
2019-05-10T02:07:32.853Z,6.06
2019-05-10T02:10:40.779Z,6.36
2019-05-10T02:13:47.208Z,6.73
2019-05-10T02:16:53.527Z,6.84
2019-05-10T02:19:59.863Z,6.55
2019-05-10T02:23:06.351Z,6.14
2019-05-10T02:26:12.855Z,6.12
2019-05-10T02:29:19.775Z,6.47
2019-05-10T02:32:26.032Z,6.76
2019-05-10T02:35:32.478Z,6.77
2019-05-10T02:38:39.230Z,6.45
2019-05-10T02:41:45.629Z,6.86
2019-05-10T02:44:51.896Z,6.86
2019-05-10T02:47:58.232Z,6.54
2019-05-10T02:51:04.565Z,6.39
2019-05-10T02:54:12.032Z,6.52
2019-05-10T02:57:18.391Z,6.86
2019-05-10T03:00:25.780Z,6.75
2019-05-10T03:03:33.096Z,6.69
2019-05-10T03:06:40.818Z,6.69
2019-05-10T03:09:50.264Z,6.93
2019-05-10T03:12:58.966Z,7.09
2019-05-10T03:16:05.430Z,6.93
2019-05-10T03:19:12.303Z,6.84
2019-05-10T03:22:19.322Z,6.87
2019-05-10T03:25:25.953Z,7.06
2019-05-10T03:28:32.210Z,6.90
2019-05-10T03:31:38.722Z,6.97
2019-05-10T03:34:45.063Z,7.20
2019-05-10T03:37:51.634Z,7.21
2019-05-10T03:40:58.333Z,7.33
2019-05-10T03:44:05.126Z,7.26
2019-05-10T03:47:12.418Z,7.34
2019-05-10T03:50:18.975Z,7.47
2019-05-10T03:53:25.386Z,7.43
2019-05-10T03:56:32.840Z,7.58
2019-05-10T03:59:39.159Z,7.23
2019-05-10T04:02:45.647Z,7.32
2019-05-10T04:05:52.205Z,7.54
2019-05-10T04:08:58.554Z,7.65
2019-05-10T04:12:04.940Z,7.56
2019-05-10T04:15:12.414Z,7.56
2019-05-10T04:18:18.646Z,7.45
2019-05-10T04:21:25.229Z,7.56
2019-05-10T04:24:36.037Z,7.72
2019-05-10T04:27:39.786Z,7.69
2019-05-10T04:30:46.400Z,7.66
2019-05-10T04:33:52.904Z,7.64
2019-05-10T04:36:59.287Z,7.75
2019-05-10T04:40:06.361Z,7.81
2019-05-10T04:43:13.419Z,7.96
2019-05-10T04:46:19.830Z,8.02
2019-05-10T04:49:26.139Z,8.10
2019-05-10T04:52:32.570Z,8.19
2019-05-10T04:55:39.040Z,8.24
2019-05-10T04:58:45.488Z,8.24
2019-05-10T05:01:52.739Z,8.36
2019-05-10T05:04:59.631Z,8.45
2019-05-10T05:08:06.560Z,8.49
2019-05-10T05:11:12.980Z,8.60
2019-05-10T05:14:19.393Z,8.61
2019-05-10T05:17:26.444Z,8.67
2019-05-10T05:20:32.706Z,8.77
2019-05-10T05:23:39.120Z,8.87
2019-05-10T05:26:46.147Z,8.95
2019-05-10T05:29:53.321Z,9.03
2019-05-10T05:32:59.765Z,9.09
2019-05-10T05:36:06.142Z,9.26
2019-05-10T05:39:12.503Z,9.36
2019-05-10T05:42:22.278Z,9.48
2019-05-10T05:45:28.388Z,9.62
2019-05-10T05:48:40.533Z,9.68
2019-05-10T05:51:43.611Z,9.80
2019-05-10T05:54:55.348Z,10.04
2019-05-10T05:57:59.133Z,10.20
2019-05-10T06:01:06.386Z,10.36
2019-05-10T06:04:12.912Z,10.48
2019-05-10T06:07:21.123Z,10.67
2019-05-10T06:10:27.767Z,10.74
2019-05-10T06:13:34.593Z,10.89
2019-05-10T06:16:45.038Z,10.97
2019-05-10T06:19:49.027Z,11.01
2019-05-10T06:23:06.609Z,10.90
2019-05-10T06:26:03.427Z,11.05
2019-05-10T06:29:16.191Z,11.11
2019-05-10T06:32:18.340Z,11.35
2019-05-10T06:35:24.800Z,11.33
2019-05-10T06:38:31.190Z,11.44
2019-05-10T06:41:37.553Z,11.55
2019-05-10T06:44:44.076Z,11.67
2019-05-10T06:47:53.422Z,11.86
2019-05-10T06:51:02.901Z,12.02
2019-05-10T06:54:07.355Z,12.16
2019-05-10T06:57:17.722Z,12.27
2019-05-10T07:00:21.880Z,12.23
2019-05-10T07:03:28.483Z,12.34
2019-05-10T07:06:34.824Z,12.44
2019-05-10T07:10:01.317Z,12.44
2019-05-10T07:12:49.856Z,12.76
2019-05-10T07:15:56.254Z,12.89
2019-05-10T07:19:02.822Z,12.88
2019-05-10T07:22:09.242Z,13.15
2019-05-10T07:25:15.686Z,13.28
2019-05-10T07:28:22.083Z,13.48
2019-05-10T07:31:28.424Z,13.53
2019-05-10T07:34:35.969Z,13.65
2019-05-10T07:37:42.310Z,13.72
2019-05-10T07:40:48.777Z,13.71
2019-05-10T07:44:00.827Z,13.81
2019-05-10T07:47:03.476Z,14.17
2019-05-10T07:50:11.505Z,14.36
2019-05-10T07:53:22.764Z,14.23
2019-05-10T07:56:26.370Z,14.47
2019-05-10T07:59:49.446Z,14.84
2019-05-10T08:02:44.367Z,15.13
2019-05-10T08:05:55.025Z,15.16
2019-05-10T08:09:04.116Z,15.51
2019-05-10T08:12:05.592Z,15.62
2019-05-10T08:15:12.379Z,15.68
2019-05-10T08:18:23.437Z,15.99
2019-05-10T08:21:26.804Z,16.11
2019-05-10T08:24:35.530Z,16.07
2019-05-10T08:27:50.233Z,16.12
2019-05-10T08:30:53.444Z,16.41
2019-05-10T08:33:59.061Z,16.50
2019-05-10T08:37:05.800Z,16.75
2019-05-10T08:40:12.865Z,16.75
2019-05-10T08:43:21.832Z,16.77
2019-05-10T08:46:37.226Z,17.15
2019-05-10T08:49:46.725Z,16.94
2019-05-10T08:52:44.772Z,17.43
2019-05-10T08:55:52.481Z,17.66
2019-05-10T08:59:02.987Z,17.20
2019-05-10T09:02:08.687Z,17.62
2019-05-10T09:05:15.124Z,17.71
2019-05-10T09:08:24.970Z,18.03
2019-05-10T09:11:29.875Z,17.80
2019-05-10T09:14:36.346Z,18.71
2019-05-10T09:17:43.228Z,18.71
2019-05-10T09:20:51.448Z,19.28
2019-05-10T09:24:04.937Z,19.45
2019-05-10T09:27:07.292Z,19.36
2019-05-10T09:30:18.449Z,19.17
2019-05-10T09:33:23.797Z,18.58
2019-05-10T09:36:31.784Z,18.55
2019-05-10T09:39:38.472Z,18.68
2019-05-10T09:42:44.820Z,18.24
2019-05-10T09:45:53.103Z,18.84
2019-05-10T09:49:05.967Z,18.38
2019-05-10T09:52:12.592Z,18.90
2019-05-10T09:55:17.508Z,19.04
2019-05-10T09:58:24.157Z,18.46
2019-05-10T10:01:30.534Z,18.62
2019-05-10T10:04:37.311Z,18.11
2019-05-10T10:07:43.872Z,19.18
2019-05-10T10:10:50.247Z,18.91
2019-05-10T10:13:59.788Z,18.91
2019-05-10T10:17:05.263Z,19.39
2019-05-10T10:20:11.953Z,18.90
2019-05-10T10:23:18.388Z,18.36
2019-05-10T10:26:26.868Z,18.93
2019-05-10T10:29:34.099Z,18.88
2019-05-10T10:32:44.393Z,18.91
2019-05-10T10:35:49.469Z,19.10
2019-05-10T10:38:56.024Z,19.12
2019-05-10T10:42:08.012Z,19.01
2019-05-10T10:45:10.903Z,19.06
2019-05-10T10:48:17.897Z,19.07
2019-05-10T10:51:26.501Z,18.69
2019-05-10T10:54:36.721Z,18.87
2019-05-10T10:57:41.197Z,19.44
2019-05-10T11:00:48.272Z,19.24
2019-05-10T11:03:54.822Z,18.71
2019-05-10T11:07:10.245Z,18.85
2019-05-10T11:10:16.107Z,19.03
2019-05-10T11:13:23.708Z,18.81
2019-05-10T11:16:25.944Z,19.02
2019-05-10T11:19:32.455Z,18.61
2019-05-10T11:22:41.846Z,19.07
2019-05-10T11:25:54.358Z,19.07
2019-05-10T11:28:55.258Z,19.00
2019-05-10T11:32:15.381Z,19.18
2019-05-10T11:35:11.787Z,19.03
2019-05-10T11:38:18.170Z,19.52
2019-05-10T11:41:24.803Z,19.25
2019-05-10T11:44:31.720Z,19.37
2019-05-10T11:47:40.735Z,19.55
2019-05-10T11:50:46.362Z,19.43
2019-05-10T11:53:55.452Z,19.23
2019-05-10T12:00:24.454Z,19.60
2019-05-10T12:03:22.470Z,19.60
2019-05-10T12:06:26.348Z,19.53
2019-05-10T12:09:35.559Z,19.04
2019-05-10T12:13:00.501Z,18.85
2019-05-10T12:15:53.374Z,18.89
2019-05-10T12:19:06.843Z,18.63
2019-05-10T12:22:08.188Z,19.16
2019-05-10T12:25:37.748Z,19.16
2019-05-10T12:26:04.743Z,19.31
2019-05-10T12:28:31.532Z,19.39
2019-05-10T12:31:36.276Z,19.39
2019-05-10T12:34:50.443Z,19.35
2019-05-10T12:37:54.462Z,19.05
2019-05-10T12:41:05.382Z,19.04
2019-05-10T12:44:14.332Z,18.53
2019-05-10T12:47:22.470Z,18.32
2019-05-10T12:50:28.900Z,18.09
2019-05-10T12:53:44.397Z,17.80
2019-05-10T12:56:46.226Z,17.89
2019-05-10T12:59:54.369Z,17.61
2019-05-10T13:03:12.229Z,17.30
2019-05-10T13:06:10.971Z,17.30
2019-05-10T13:09:17.311Z,17.25
2019-05-10T13:12:23.798Z,17.02
2019-05-10T13:15:31.068Z,16.84
2019-05-10T13:18:50.252Z,17.04
2019-05-10T13:21:53.643Z,16.89
2019-05-10T13:24:57.491Z,16.66
2019-05-10T13:28:04.174Z,16.42
2019-05-10T13:31:10.703Z,16.41
2019-05-10T13:34:17.125Z,16.37
2019-05-10T13:37:25.441Z,16.52
2019-05-10T13:40:31.990Z,16.28
2019-05-10T13:43:38.944Z,16.15
2019-05-10T13:46:45.291Z,16.25
2019-05-10T13:49:52.015Z,15.89
2019-05-10T13:52:58.451Z,16.00
2019-05-10T13:56:08.186Z,15.86
2019-05-10T13:59:17.671Z,15.80
2019-05-10T14:02:32.410Z,15.60
2019-05-10T14:05:31.439Z,15.78
2019-05-10T14:08:42.972Z,15.72
2019-05-10T14:11:46.979Z,15.54
2019-05-10T14:14:55.398Z,15.51
2019-05-10T14:18:01.698Z,15.92
2019-05-10T14:21:08.174Z,16.01
2019-05-10T14:24:15.634Z,16.10
2019-05-10T14:27:23.063Z,16.09
2019-05-10T14:30:29.734Z,15.86
2019-05-10T14:33:36.276Z,15.77
2019-05-10T14:36:43.520Z,15.70
2019-05-10T14:39:50.058Z,15.71
2019-05-10T14:42:56.476Z,15.59
2019-05-10T14:46:03.194Z,15.57
2019-05-10T14:49:11.529Z,15.44
2019-05-10T14:52:17.835Z,15.26
2019-05-10T14:55:27.918Z,15.01
2019-05-10T14:58:32.319Z,14.78
2019-05-10T15:01:42.805Z,14.68
2019-05-10T15:04:47.298Z,14.25
2019-05-10T15:07:54.128Z,14.26
2019-05-10T15:11:00.406Z,14.28
2019-05-10T15:14:07.013Z,14.20
2019-05-10T15:17:13.615Z,14.14
2019-05-10T15:20:19.986Z,14.12
2019-05-10T15:23:26.409Z,13.81
2019-05-10T15:26:37.442Z,13.94
2019-05-10T15:29:40.841Z,13.94
2019-05-10T15:32:48.394Z,13.92
2019-05-10T15:35:54.781Z,13.92
2019-05-10T15:39:01.090Z,13.71
2019-05-10T15:42:09.089Z,13.45
2019-05-10T15:45:19.225Z,13.50
2019-05-10T15:48:23.835Z,13.46
2019-05-10T15:51:36.135Z,13.42
2019-05-10T15:54:44.615Z,13.43
2019-05-10T15:57:46.639Z,13.29
2019-05-10T16:00:54.378Z,13.27
2019-05-10T16:04:01.108Z,13.11
2019-05-10T16:07:09.309Z,13.00
2019-05-10T16:10:15.886Z,13.00
2019-05-10T16:13:24.961Z,12.88
2019-05-10T16:16:36.896Z,12.82
2019-05-10T16:19:40.109Z,12.86
2019-05-10T16:22:46.414Z,12.86
2019-05-10T16:25:52.854Z,12.89
2019-05-10T16:29:02.250Z,12.91
2019-05-10T16:32:07.522Z,12.81
2019-05-10T16:35:14.777Z,12.86
2019-05-10T16:38:21.411Z,12.91
2019-05-10T16:41:27.861Z,13.07
2019-05-10T16:44:34.469Z,13.07
2019-05-10T16:47:40.813Z,13.29
2019-05-10T16:50:47.463Z,13.15
2019-05-10T16:53:53.744Z,13.20
2019-05-10T16:57:01.442Z,13.30
2019-05-10T17:00:10.344Z,13.24
2019-05-10T17:03:18.480Z,13.27
2019-05-10T17:06:24.370Z,13.37
2019-05-10T17:09:31.119Z,13.20
2019-05-10T17:12:46.886Z,13.15
2019-05-10T17:15:53.394Z,13.06
2019-05-10T17:18:59.776Z,12.98
2019-05-10T17:22:06.250Z,13.10
2019-05-10T17:25:12.572Z,13.06
2019-05-10T17:28:19.085Z,13.07
2019-05-10T17:31:25.375Z,13.16
2019-05-10T17:34:31.829Z,13.16
2019-05-10T17:37:38.320Z,13.07
2019-05-10T17:40:47.541Z,13.00
2019-05-10T17:43:52.845Z,12.89
2019-05-10T17:46:59.324Z,12.75
2019-05-10T17:50:05.934Z,12.61
2019-05-10T17:53:12.279Z,12.64
2019-05-10T17:56:18.630Z,12.69
2019-05-10T17:59:25.086Z,12.48
2019-05-10T18:02:31.501Z,12.44
2019-05-10T18:05:41.230Z,12.38
2019-05-10T18:08:45.860Z,12.29
2019-05-10T18:11:52.525Z,12.33
2019-05-10T18:14:59.490Z,12.10
2019-05-10T18:18:05.890Z,11.96
2019-05-10T18:21:15.885Z,11.85
2019-05-10T18:24:20.399Z,11.81
2019-05-10T18:27:26.671Z,11.73
2019-05-10T18:30:33.043Z,11.65
2019-05-10T18:33:39.343Z,11.56
2019-05-10T18:36:51.395Z,11.55
2019-05-10T18:39:54.768Z,11.55
2019-05-10T18:43:03.899Z,11.56
2019-05-10T18:46:09.699Z,11.43
2019-05-10T18:49:16.267Z,11.43
2019-05-10T18:52:23.684Z,11.36
2019-05-10T18:55:30.028Z,11.36
2019-05-10T18:58:36.449Z,11.24
2019-05-10T19:01:42.983Z,11.05
2019-05-10T19:04:51.859Z,10.87
2019-05-10T19:08:04.059Z,10.82
2019-05-10T19:11:05.969Z,10.74
2019-05-10T19:14:12.963Z,10.68
2019-05-10T19:17:19.750Z,10.60
2019-05-10T19:20:26.178Z,10.67
2019-05-10T19:23:32.599Z,10.42
2019-05-10T19:26:39.198Z,10.42
2019-05-10T19:29:47.861Z,10.32
2019-05-10T19:32:56.314Z,10.09
2019-05-10T19:36:12.485Z,10.03
2019-05-10T19:39:11.540Z,10.01
2019-05-10T19:42:18.117Z,9.77
2019-05-10T19:45:24.411Z,9.77
2019-05-10T19:48:35.675Z,9.71
2019-05-10T19:51:42.316Z,9.68
2019-05-10T19:54:47.406Z,9.60
2019-05-10T19:57:54.918Z,9.61
2019-05-10T20:01:02.004Z,9.50
2019-05-10T20:04:09.480Z,9.28
2019-05-10T20:07:15.941Z,9.32
2019-05-10T20:10:22.440Z,9.11
2019-05-10T20:13:28.814Z,9.04
2019-05-10T20:16:51.567Z,8.98
2019-05-10T20:19:44.292Z,8.92
2019-05-10T20:22:50.796Z,8.88
2019-05-10T20:25:59.417Z,8.91
2019-05-10T20:29:06.134Z,8.66
2019-05-10T20:32:12.604Z,8.62
2019-05-10T20:35:18.939Z,8.59
2019-05-10T20:38:25.220Z,8.38
2019-05-10T20:41:31.609Z,8.51
2019-05-10T20:44:38.219Z,8.37
2019-05-10T20:47:44.693Z,8.35
2019-05-10T20:50:51.057Z,8.25
2019-05-10T20:53:57.694Z,8.31
2019-05-10T20:57:04.050Z,8.17
2019-05-10T21:00:10.671Z,8.29
2019-05-10T21:03:17.083Z,8.27
2019-05-10T21:06:23.513Z,8.24
2019-05-10T21:09:29.803Z,8.30
2019-05-10T21:12:36.243Z,8.31
2019-05-10T21:15:42.598Z,8.22
2019-05-10T21:18:49.018Z,8.23
2019-05-10T21:21:55.661Z,8.28
2019-05-10T21:25:02.021Z,8.26
2019-05-10T21:28:08.625Z,8.25
2019-05-10T21:31:15.217Z,8.34
2019-05-10T21:34:21.505Z,8.35
2019-05-10T21:37:27.945Z,8.24
2019-05-10T21:40:34.231Z,8.29
2019-05-10T21:43:40.636Z,8.15
2019-05-10T21:46:47.344Z,8.10
2019-05-10T21:49:53.775Z,8.23
2019-05-10T21:53:00.065Z,8.21
2019-05-10T21:56:06.459Z,8.28
2019-05-10T21:59:12.926Z,8.30
2019-05-10T22:02:19.341Z,8.30
2019-05-10T22:05:25.792Z,7.99
2019-05-10T22:08:48.023Z,8.07
2019-05-10T22:11:40.442Z,8.18
2019-05-10T22:14:46.816Z,8.20
2019-05-10T22:17:53.176Z,8.17
2019-05-10T22:21:00.024Z,8.23
2019-05-10T22:24:06.774Z,8.05
2019-05-10T22:27:13.248Z,8.05
2019-05-10T22:30:19.594Z,8.12
2019-05-10T22:33:26.016Z,8.30
2019-05-10T22:36:32.788Z,8.30
2019-05-10T22:39:39.284Z,8.11
2019-05-10T22:42:45.746Z,8.05
2019-05-10T22:45:52.460Z,8.19
2019-05-10T22:48:59.056Z,8.05
2019-05-10T22:52:05.345Z,8.04
2019-05-10T22:55:12.146Z,8.00
2019-05-10T22:58:18.693Z,8.05
2019-05-10T23:01:25.046Z,8.23
2019-05-10T23:04:31.457Z,8.26
2019-05-10T23:07:37.815Z,8.04
2019-05-10T23:10:46.707Z,8.03
2019-05-10T23:13:52.974Z,7.80
2019-05-10T23:16:59.335Z,7.90
2019-05-10T23:20:05.913Z,7.79
2019-05-10T23:23:12.240Z,7.87
2019-05-10T23:26:18.891Z,7.93
2019-05-10T23:29:25.256Z,8.06
2019-05-10T23:32:31.640Z,8.13
2019-05-10T23:35:38.276Z,8.06
2019-05-10T23:38:44.661Z,8.11
2019-05-10T23:41:52.689Z,7.79
2019-05-10T23:44:59.029Z,7.86
2019-05-10T23:48:05.423Z,7.98
2019-05-10T23:51:12.025Z,7.75
2019-05-10T23:54:18.594Z,7.69
2019-05-10T23:57:24.901Z,7.69
